Time;durP1;ratioP1;P1;durP2;ratioP2;P2;SDS_P1;SDS_P2;PMS_P1;PMS_P2;Temp;Humidity;BMP_temperature;BMP_pressure;BME280_temperature;BME280_humidity;BME280_pressure;Samples;Min_cycle;Max_cycle;Signal;HPM_P1;HPM_P2
2023/01/16 00:00:51;;;;;;;5.18;1.10;;;2.70;1.00;;;;;;7364517;19;20019;-78
2023/01/16 00:03:21;;;;;;;5.13;1.30;;;2.80;1.00;;;;;;7387821;19;20025;-78
2023/01/16 00:05:50;;;;;;;7.05;2.00;;;2.90;1.00;;;;;;7365529;19;20014;-79
2023/01/16 00:08:23;;;;;;;3.10;0.93;;;3.00;1.00;;;;;;7365165;19;20014;-78
2023/01/16 00:10:52;;;;;;;2.53;0.70;;;3.10;1.00;;;;;;7366250;19;20078;-78
2023/01/16 00:13:22;;;;;;;5.15;1.20;;;3.20;1.00;;;;;;7364445;19;20038;-78
2023/01/16 00:15:53;;;;;;;2.65;0.70;;;3.20;1.00;;;;;;7366162;19;20020;-78
2023/01/16 00:18:23;;;;;;;3.40;0.95;;;3.30;1.00;;;;;;7386278;19;20021;-79
2023/01/16 00:20:53;;;;;;;3.08;0.90;;;3.40;1.00;;;;;;7362792;19;20018;-78
2023/01/16 00:23:25;;;;;;;3.55;0.88;;;3.40;1.00;;;;;;7365411;19;20018;-78
2023/01/16 00:25:55;;;;;;;1.77;0.70;;;3.40;1.00;;;;;;7366380;19;20094;-79
2023/01/16 00:28:25;;;;;;;3.92;0.80;;;3.50;1.00;;;;;;7364753;19;20022;-79
2023/01/16 00:30:55;;;;;;;2.35;0.70;;;3.60;1.00;;;;;;7365625;19;20022;-78
2023/01/16 00:33:24;;;;;;;2.25;0.80;;;3.70;1.00;;;;;;7390504;19;20029;-78
2023/01/16 00:35:54;;;;;;;2.65;0.65;;;3.70;1.00;;;;;;7364900;19;20011;-77
2023/01/16 00:38:27;;;;;;;4.15;0.95;;;3.60;1.00;;;;;;7364948;19;20013;-77
2023/01/16 00:40:57;;;;;;;3.92;0.73;;;3.70;1.00;;;;;;7364351;19;20060;-78
2023/01/16 00:43:27;;;;;;;3.83;1.10;;;3.70;1.00;;;;;;7363638;19;20385;-77
2023/01/16 00:45:56;;;;;;;2.30;0.80;;;3.70;1.00;;;;;;7365126;19;20643;-77
2023/01/16 00:48:27;;;;;;;3.33;1.20;;;3.70;1.00;;;;;;7386214;19;20026;-78
2023/01/16 00:50:57;;;;;;;2.80;0.70;;;3.70;1.00;;;;;;7368587;19;20102;-78
2023/01/16 00:53:30;;;;;;;6.82;0.82;;;3.60;1.00;;;;;;7364313;19;20118;-78
2023/01/16 00:56:00;;;;;;;4.10;0.88;;;3.60;1.00;;;;;;7364918;19;20010;-78
2023/01/16 00:58:29;;;;;;;1.63;0.52;;;3.60;1.00;;;;;;7363691;19;20070;-77
2023/01/16 01:00:59;;;;;;;2.63;0.70;;;3.60;1.00;;;;;;7363122;19;20025;-78
2023/01/16 01:03:30;;;;;;;2.40;0.73;;;3.50;1.00;;;;;;7385908;19;20015;-77
2023/01/16 01:06:00;;;;;;;2.92;0.95;;;3.50;1.00;;;;;;7364164;19;20014;-78
2023/01/16 01:08:32;;;;;;;3.70;0.90;;;3.50;1.00;;;;;;7363039;19;20018;-79
2023/01/16 01:11:08;;;;;;;1.55;0.82;;;3.40;1.00;;;;;;7364633;19;20014;-78
2023/01/16 01:13:38;;;;;;;2.38;1.00;;;3.50;1.00;;;;;;7364230;19;20021;-78
2023/01/16 01:16:09;;;;;;;1.58;0.63;;;3.40;1.00;;;;;;7364031;19;20066;-78
2023/01/16 01:18:40;;;;;;;2.85;0.82;;;3.30;1.00;;;;;;7362673;19;20026;-79
2023/01/16 01:21:10;;;;;;;2.80;0.90;;;3.30;1.00;;;;;;7383559;19;20391;-79
2023/01/16 01:23:43;;;;;;;5.15;1.10;;;3.30;1.00;;;;;;7362044;19;20018;-77
2023/01/16 01:26:15;;;;;;;3.03;0.70;;;3.20;1.00;;;;;;7363874;19;20354;-78
2023/01/16 01:28:46;;;;;;;2.58;1.08;;;3.20;1.00;;;;;;7362492;19;20032;-77
2023/01/16 01:31:16;;;;;;;3.47;1.10;;;3.20;1.00;;;;;;7363626;19;20018;-77
2023/01/16 01:33:46;;;;;;;4.10;1.00;;;3.30;1.00;;;;;;7367394;19;20011;-77
2023/01/16 01:36:16;;;;;;;5.93;1.50;;;3.20;1.00;;;;;;7385365;19;20022;-78
2023/01/16 01:38:50;;;;;;;3.38;1.15;;;3.20;1.00;;;;;;7361641;19;20478;-77
2023/01/16 01:41:20;;;;;;;5.15;1.55;;;3.20;1.00;;;;;;7363061;19;20557;-78
2023/01/16 01:43:52;;;;;;;3.95;0.90;;;3.20;1.00;;;;;;7363840;19;20014;-77
2023/01/16 01:46:25;;;;;;;3.75;0.90;;;3.20;1.00;;;;;;7364458;19;20415;-78
2023/01/16 01:48:59;;;;;;;3.53;0.95;;;3.20;1.00;;;;;;7362000;19;20023;-78
2023/01/16 01:51:33;;;;;;;1.42;0.70;;;3.10;1.00;;;;;;7384392;19;20018;-79
2023/01/16 01:54:08;;;;;;;4.53;1.05;;;3.10;1.00;;;;;;7362633;19;20011;-78
2023/01/16 01:56:43;;;;;;;3.45;0.80;;;3.00;1.00;;;;;;7362481;19;20034;-78
2023/01/16 01:59:17;;;;;;;3.90;1.00;;;2.90;1.00;;;;;;7361162;19;20010;-78
2023/01/16 02:01:47;;;;;;;1.92;0.73;;;2.80;1.00;;;;;;7362561;19;20107;-78
2023/01/16 02:04:20;;;;;;;3.05;1.05;;;2.80;1.00;;;;;;7361458;19;20183;-78
2023/01/16 02:06:52;;;;;;;2.22;1.00;;;2.80;1.00;;;;;;7363302;19;20015;-78
2023/01/16 02:09:26;;;;;;;6.75;1.48;;;2.70;1.00;;;;;;7382601;19;20035;-78
2023/01/16 02:12:00;;;;;;;6.50;1.15;;;2.60;1.00;;;;;;7362350;19;20424;-78
2023/01/16 02:14:33;;;;;;;1.70;0.82;;;2.60;1.00;;;;;;7361839;19;20019;-78
2023/01/16 02:19:57;;;;;;;2.58;1.05;;;2.50;1.00;;;;;;7362109;19;20031;-78
2023/01/16 02:22:56;;;;;;;5.78;1.52;;;2.60;1.00;;;;;;7361832;19;20013;-78
2023/01/16 02:25:58;;;;;;;4.80;1.17;;;2.50;1.00;;;;;;7362979;19;20010;-78
2023/01/16 02:28:57;;;;;;;4.95;1.30;;;2.60;1.00;;;;;;7361623;19;20018;-77
2023/01/16 02:31:42;;;;;;;3.15;0.95;;;2.60;1.00;;;;;;7360885;19;20035;-77
2023/01/16 02:34:28;;;;;;;2.78;1.30;;;2.50;1.00;;;;;;7361669;19;20021;-77
2023/01/16 02:37:08;;;;;;;3.58;1.15;;;2.40;1.00;;;;;;7361873;19;20014;-76
2023/01/16 02:39:45;;;;;;;4.05;1.17;;;2.40;1.00;;;;;;7360482;19;20038;-78
2023/01/16 02:42:26;;;;;;;4.80;1.20;;;2.40;1.00;;;;;;7385067;19;20031;-77
2023/01/16 02:45:04;;;;;;;5.13;1.40;;;2.50;1.00;;;;;;7361118;19;20757;-77
2023/01/16 02:47:44;;;;;;;3.60;1.00;;;2.60;1.00;;;;;;7361744;19;20264;-77
2023/01/16 02:50:22;;;;;;;3.28;1.08;;;2.60;1.00;;;;;;7359983;19;20014;-77
2023/01/16 02:53:02;;;;;;;4.82;1.13;;;2.60;1.00;;;;;;7361607;19;20115;-78
2023/01/16 02:55:36;;;;;;;2.92;1.30;;;2.70;1.00;;;;;;7361146;19;20015;-77
2023/01/16 02:58:08;;;;;;;3.40;0.90;;;2.60;1.00;;;;;;7361106;19;20015;-78
2023/01/16 03:00:38;;;;;;;4.15;0.82;;;2.70;1.00;;;;;;7358052;19;20385;-78
2023/01/16 03:03:31;;;;;;;4.32;0.90;;;2.70;1.00;;;;;;7382121;19;20022;-76
2023/01/16 03:06:10;;;;;;;3.15;0.70;;;2.70;1.00;;;;;;7360666;19;20014;-78
2023/01/16 03:08:48;;;;;;;1.85;0.90;;;2.60;1.00;;;;;;7359546;19;20090;-78
2023/01/16 03:11:24;;;;;;;5.65;1.35;;;2.60;1.00;;;;;;7360186;19;20011;-78
2023/01/16 03:14:13;;;;;;;6.30;1.10;;;2.60;1.00;;;;;;7361112;19;20043;-78
2023/01/16 03:16:55;;;;;;;6.55;1.40;;;2.60;1.00;;;;;;7360916;19;20025;-78
2023/01/16 03:19:38;;;;;;;2.80;1.30;;;2.60;1.00;;;;;;7359884;19;20015;-78
2023/01/16 03:22:17;;;;;;;2.97;1.50;;;2.60;1.00;;;;;;7359785;19;20021;-78
2023/01/16 03:25:00;;;;;;;4.45;1.40;;;2.50;1.00;;;;;;7361520;19;20526;-79
2023/01/16 03:27:41;;;;;;;3.92;1.40;;;2.50;1.00;;;;;;7381905;19;20013;-78
2023/01/16 03:30:17;;;;;;;4.38;1.33;;;2.60;1.00;;;;;;7357760;19;20015;-78
2023/01/16 03:32:52;;;;;;;2.22;0.90;;;2.70;1.00;;;;;;7362279;19;20010;-78
2023/01/16 03:35:30;;;;;;;3.15;0.90;;;2.80;1.00;;;;;;7359800;19;20466;-77
2023/01/16 03:38:05;;;;;;;1.02;0.65;;;3.00;1.00;;;;;;7362680;19;20115;-78
2023/01/16 03:40:39;;;;;;;3.60;0.70;;;3.10;1.00;;;;;;7358209;19;20522;-78
2023/01/16 03:43:12;;;;;;;4.28;0.75;;;3.10;1.00;;;;;;7360145;19;20020;-78
2023/01/16 03:45:47;;;;;;;3.75;0.80;;;3.20;1.00;;;;;;7359791;19;20018;-78
2023/01/16 03:48:24;;;;;;;4.10;1.15;;;3.10;1.00;;;;;;7384372;19;20026;-78
2023/01/16 03:51:01;;;;;;;5.97;1.13;;;3.00;1.00;;;;;;7366336;19;20101;-78
2023/01/16 03:53:34;;;;;;;3.85;1.08;;;3.00;1.00;;;;;;7366617;19;20070;-78
2023/01/16 03:56:13;;;;;;;1.92;1.30;;;3.00;1.00;;;;;;7366686;19;20411;-78
2023/01/16 03:58:53;;;;;;;3.55;1.38;;;2.90;1.00;;;;;;7365576;19;20030;-78
2023/01/16 04:01:29;;;;;;;2.75;1.00;;;2.90;1.00;;;;;;7365907;19;20498;-78
2023/01/16 04:04:05;;;;;;;3.60;1.20;;;2.80;1.00;;;;;;7366956;19;20123;-78
2023/01/16 04:06:43;;;;;;;3.05;1.42;;;2.80;1.00;;;;;;7370334;19;20457;-78
2023/01/16 04:09:19;;;;;;;3.63;0.88;;;2.70;1.00;;;;;;7386129;19;20094;-78
2023/01/16 04:11:51;;;;;;;3.15;1.00;;;2.60;1.00;;;;;;7365776;19;20018;-78
2023/01/16 04:14:24;;;;;;;2.63;0.73;;;2.60;1.00;;;;;;7366073;19;20022;-77
2023/01/16 04:16:54;;;;;;;2.30;0.95;;;2.50;1.00;;;;;;7366215;19;20027;-78
2023/01/16 04:19:26;;;;;;;5.72;1.00;;;2.40;1.00;;;;;;7364542;19;20015;-78
2023/01/16 04:21:58;;;;;;;3.55;1.58;;;2.40;1.00;;;;;;7365096;19;20085;-78
2023/01/16 04:24:28;;;;;;;1.98;1.02;;;2.40;1.00;;;;;;7388697;19;20011;-77
2023/01/16 04:26:58;;;;;;;2.65;0.98;;;2.30;1.00;;;;;;7365776;19;20013;-78
2023/01/16 04:29:28;;;;;;;6.28;1.40;;;2.20;1.00;;;;;;7363579;19;20019;-78
2023/01/16 04:31:58;;;;;;;1.33;0.68;;;2.30;1.00;;;;;;7365384;19;20014;-78
2023/01/16 04:34:28;;;;;;;2.35;0.82;;;2.20;1.00;;;;;;7367892;19;20006;-77
2023/01/16 04:37:00;;;;;;;4.80;1.00;;;2.10;1.00;;;;;;7366017;19;20108;-78
2023/01/16 04:39:30;;;;;;;2.38;0.90;;;2.10;1.00;;;;;;7384966;19;20078;-78
2023/01/16 04:42:00;;;;;;;3.58;1.00;;;2.00;1.00;;;;;;7364486;19;20126;-78
2023/01/16 04:44:30;;;;;;;2.22;0.88;;;1.90;1.00;;;;;;7364215;19;20370;-77
2023/01/16 04:47:01;;;;;;;4.43;1.02;;;1.90;1.00;;;;;;7365156;19;20640;-77
2023/01/16 04:49:31;;;;;;;3.47;1.02;;;1.90;1.00;;;;;;7364466;19;20530;-78
2023/01/16 04:52:03;;;;;;;2.22;1.13;;;1.90;1.00;;;;;;7364720;19;20089;-78
2023/01/16 04:54:33;;;;;;;3.08;1.30;;;1.90;1.00;;;;;;7380905;19;20025;-79
2023/01/16 04:57:03;;;;;;;4.88;1.30;;;1.90;1.00;;;;;;7386389;19;20066;-77
2023/01/16 04:59:33;;;;;;;2.25;0.98;;;1.90;1.00;;;;;;7361779;19;20021;-78
2023/01/16 05:02:03;;;;;;;3.67;1.27;;;1.90;1.00;;;;;;7363777;19;20021;-77
2023/01/16 05:04:33;;;;;;;5.32;0.90;;;1.90;1.00;;;;;;7363991;19;20025;-77
2023/01/16 05:07:05;;;;;;;2.58;1.20;;;1.90;1.00;;;;;;7364002;19;20014;-77
2023/01/16 05:09:35;;;;;;;2.58;1.20;;;1.80;1.00;;;;;;7363206;19;20011;-78
2023/01/16 05:12:05;;;;;;;3.55;1.10;;;1.90;1.00;;;;;;7385460;19;20106;-77
2023/01/16 05:14:35;;;;;;;3.25;0.90;;;1.90;1.00;;;;;;7363650;19;20029;-77
2023/01/16 05:17:05;;;;;;;3.13;1.30;;;1.90;1.00;;;;;;7364711;19;20085;-76
2023/01/16 05:19:35;;;;;;;3.78;1.17;;;1.90;1.00;;;;;;7362742;19;20022;-77
2023/01/16 05:22:07;;;;;;;5.35;1.25;;;1.80;1.00;;;;;;7363795;19;20025;-78
2023/01/16 05:24:37;;;;;;;6.05;0.93;;;1.90;1.00;;;;;;7364553;19;20031;-78
2023/01/16 05:27:07;;;;;;;3.55;0.93;;;2.00;1.00;;;;;;7384952;19;20024;-77
2023/01/16 05:29:37;;;;;;;2.67;1.00;;;1.80;1.00;;;;;;7364261;19;20105;-77
2023/01/16 05:32:07;;;;;;;2.30;1.08;;;1.90;1.00;;;;;;7366405;19;20011;-78
2023/01/16 05:34:37;;;;;;;2.67;0.98;;;1.90;1.00;;;;;;7364200;19;20022;-77
2023/01/16 05:37:09;;;;;;;4.55;1.08;;;1.90;1.00;;;;;;7364069;19;20014;-78
2023/01/16 05:39:39;;;;;;;1.92;1.33;;;1.90;1.00;;;;;;7361518;19;20021;-78
2023/01/16 05:42:20;;;;;;;3.10;1.05;;;1.90;1.00;;;;;;7383714;19;20014;-78
2023/01/16 05:44:51;;;;;;;4.07;1.20;;;1.90;1.00;;;;;;7362867;19;20018;-77
2023/01/16 05:47:21;;;;;;;4.25;1.20;;;1.80;1.00;;;;;;7362569;19;20151;-78
2023/01/16 05:49:51;;;;;;;3.10;1.40;;;1.90;1.00;;;;;;7362003;19;20470;-78
2023/01/16 05:52:23;;;;;;;5.35;1.50;;;1.90;1.00;;;;;;7362845;19;20013;-78
2023/01/16 05:54:53;;;;;;;2.08;1.02;;;1.90;1.00;;;;;;7364046;19;20068;-78
2023/01/16 05:57:26;;;;;;;3.10;0.90;;;1.90;1.00;;;;;;7383655;19;20010;-76
2023/01/16 05:59:56;;;;;;;5.88;1.50;;;1.90;1.00;;;;;;7360436;19;20017;-77
2023/01/16 06:02:26;;;;;;;4.63;1.55;;;2.00;1.00;;;;;;7362025;19;20026;-77
2023/01/16 06:04:56;;;;;;;3.88;1.00;;;2.10;1.00;;;;;;7363263;19;20018;-78
2023/01/16 06:07:28;;;;;;;1.65;0.90;;;2.10;1.00;;;;;;7362560;19;20015;-78
2023/01/16 06:09:58;;;;;;;1.70;0.60;;;2.10;1.00;;;;;;7359395;19;20018;-78
2023/01/16 06:12:28;;;;;;;12.38;1.35;;;2.20;1.00;;;;;;7382777;19;20035;-77
2023/01/16 06:14:58;;;;;;;1.98;1.05;;;2.10;1.00;;;;;;7362190;19;20115;-77
2023/01/16 06:17:28;;;;;;;2.67;1.00;;;2.10;1.00;;;;;;7361710;19;20109;-77
2023/01/16 06:19:59;;;;;;;3.03;1.23;;;2.10;1.00;;;;;;7361437;19;20014;-77
2023/01/16 06:22:31;;;;;;;9.50;1.38;;;2.10;1.00;;;;;;7361382;19;20015;-77
2023/01/16 06:25:01;;;;;;;2.03;1.20;;;2.10;1.00;;;;;;7361328;19;20016;-77
2023/01/16 06:27:32;;;;;;;4.72;1.40;;;2.20;1.00;;;;;;7385187;19;20395;-79
2023/01/16 06:30:01;;;;;;;3.95;1.05;;;2.20;1.00;;;;;;7358618;19;20011;-77
2023/01/16 06:32:31;;;;;;;3.03;1.10;;;2.30;1.00;;;;;;7362772;19;20007;-77
2023/01/16 06:35:01;;;;;;;6.50;1.58;;;2.30;1.00;;;;;;7361631;19;20514;-77
2023/01/16 06:37:33;;;;;;;4.78;1.33;;;2.40;1.00;;;;;;7361626;19;20030;-76
2023/01/16 06:40:03;;;;;;;2.80;1.10;;;2.30;1.00;;;;;;7360084;19;20029;-77
2023/01/16 06:42:33;;;;;;;2.35;1.25;;;2.40;1.00;;;;;;7380294;19;20038;-77
2023/01/16 06:45:03;;;;;;;3.25;1.23;;;2.50;1.00;;;;;;7382561;19;20024;-78
2023/01/16 06:47:33;;;;;;;3.33;1.40;;;2.50;1.00;;;;;;7360488;19;20025;-77
2023/01/16 06:50:03;;;;;;;3.17;1.40;;;2.50;1.00;;;;;;7359522;19;20035;-77
2023/01/16 06:52:37;;;;;;;3.13;1.20;;;2.50;1.00;;;;;;7361082;19;20011;-78
2023/01/16 06:55:07;;;;;;;;;;;2.50;1.00;;;;;;7361152;19;20014;-77
2023/01/16 06:57:38;;;;;;;1.63;0.93;;;2.50;1.00;;;;;;7360300;19;19937;-78
2023/01/16 07:00:10;;;;;;;2.70;1.35;;;2.50;1.00;;;;;;7379257;19;20543;-78
2023/01/16 07:02:40;;;;;;;3.38;1.20;;;2.50;1.00;;;;;;7359042;19;20470;-77
2023/01/16 07:05:10;;;;;;;3.08;1.30;;;2.60;1.00;;;;;;7360609;19;20085;-76
2023/01/16 07:07:43;;;;;;;5.38;1.17;;;2.60;1.00;;;;;;7361066;19;20498;-77
2023/01/16 07:10:13;;;;;;;5.13;1.35;;;2.70;1.00;;;;;;7359895;19;20018;-77
2023/01/16 07:12:43;;;;;;;3.30;1.00;;;2.60;1.00;;;;;;7359023;19;20044;-77
2023/01/16 07:23:28;;;;;;;3.30;1.05;;;2.80;1.00;;;;;;7364327;19;20018;-78
2023/01/16 07:25:59;;;;;;;3.53;1.30;;;2.80;1.00;;;;;;7368180;19;20017;-78
2023/01/16 07:28:29;;;;;;;3.25;1.02;;;2.90;1.00;;;;;;7365967;19;20467;-77
2023/01/16 07:31:02;;;;;;;3.13;1.20;;;2.80;1.00;;;;;;7367297;19;20010;-76
2023/01/16 07:33:32;;;;;;;4.47;1.55;;;2.90;1.00;;;;;;7393022;19;20037;-76
2023/01/16 07:36:02;;;;;;;4.68;2.40;;;2.90;1.00;;;;;;7367098;19;20018;-76
2023/01/16 07:38:35;;;;;;;3.67;1.42;;;3.00;1.00;;;;;;7365518;19;20482;-78
2023/01/16 07:41:04;;;;;;;2.80;1.20;;;3.00;1.00;;;;;;7367001;19;20034;-76
2023/01/16 07:43:34;;;;;;;4.13;1.50;;;3.00;1.00;;;;;;7366176;19;20034;-78
2023/01/16 07:46:04;;;;;;;4.05;1.30;;;3.00;1.00;;;;;;7366085;19;20018;-78
2023/01/16 07:48:34;;;;;;;5.38;1.83;;;3.00;1.00;;;;;;7373277;19;20032;-77
2023/01/16 07:51:04;;;;;;;3.75;1.20;;;3.00;1.00;;;;;;7387700;19;20019;-76
2023/01/16 07:53:37;;;;;;;4.28;1.80;;;3.00;1.00;;;;;;7365502;19;20015;-77
2023/01/16 07:56:07;;;;;;;5.50;2.50;;;3.00;1.00;;;;;;7366208;19;20021;-77
2023/01/16 07:58:39;;;;;;;4.00;1.65;;;3.00;1.00;;;;;;7363993;19;20599;-76
2023/01/16 08:01:09;;;;;;;6.15;1.58;;;3.00;1.00;;;;;;7365209;19;20645;-77
2023/01/16 08:03:39;;;;;;;2.67;1.33;;;3.00;1.00;;;;;;7364547;19;20482;-79
2023/01/16 08:06:10;;;;;;;2.80;1.20;;;3.10;1.00;;;;;;7386711;19;20113;-77
2023/01/16 08:08:43;;;;;;;1.98;1.05;;;3.20;1.00;;;;;;7364096;19;20014;-76
2023/01/16 08:13:55;;;;;;;2.83;1.40;;;3.20;1.00;;;;;;7365039;19;20118;-76
2023/01/16 08:16:25;;;;;;;5.85;1.65;;;3.30;1.00;;;;;;7365536;19;20029;-77
2023/01/16 08:18:54;;;;;;;3.88;1.42;;;3.30;1.00;;;;;;7365478;19;20010;-76
2023/01/16 08:21:24;;;;;;;4.05;1.40;;;3.30;1.00;;;;;;7386286;19;20108;-76
2023/01/16 08:23:57;;;;;;;1.67;1.10;;;3.30;1.00;;;;;;7363984;19;20014;-77
2023/01/16 08:26:27;;;;;;;3.85;1.40;;;3.40;1.00;;;;;;7365134;19;20010;-76
2023/01/16 08:28:57;;;;;;;3.92;1.38;;;3.40;1.00;;;;;;7364035;19;20081;-76
2023/01/16 08:31:27;;;;;;;2.40;1.30;;;3.50;1.00;;;;;;7364608;19;20097;-76
2023/01/16 08:33:57;;;;;;;3.75;1.40;;;3.60;1.00;;;;;;7363906;19;20042;-76
2023/01/16 08:36:27;;;;;;;4.03;1.27;;;3.70;1.00;;;;;;7387651;19;20021;-77
2023/01/16 08:38:59;;;;;;;1.83;1.10;;;3.80;1.00;;;;;;7363383;19;20019;-77
2023/01/16 08:52:24;;;;;;;4.10;1.35;;;4.10;1.00;;;;;;7364718;19;20013;-76
2023/01/16 08:54:56;;;;;;;1.65;0.88;;;4.10;1.00;;;;;;7364736;19;20442;-76
2023/01/16 08:57:27;;;;;;;2.35;0.93;;;4.20;1.00;;;;;;7385137;19;20018;-76
2023/01/16 08:59:57;;;;;;;1.83;1.00;;;4.20;1.00;;;;;;7362008;19;20022;-77
2023/01/16 09:02:28;;;;;;;1.30;0.70;;;4.20;1.00;;;;;;7363942;19;20018;-78
2023/01/16 09:04:57;;;;;;;1.65;0.90;;;4.30;1.00;;;;;;7362779;19;20025;-76
2023/01/16 09:07:28;;;;;;;1.92;0.98;;;4.30;1.00;;;;;;7363596;19;20018;-77
2023/01/16 09:10:01;;;;;;;2.22;0.95;;;4.30;1.00;;;;;;7361938;19;20090;-78
2023/01/16 09:15:13;;;;;;;3.85;1.10;;;4.40;1.00;;;;;;7365431;19;20010;-76
2023/01/16 09:17:43;;;;;;;2.13;0.88;;;4.40;1.00;;;;;;7366508;19;20015;-76
2023/01/16 09:20:13;;;;;;;2.78;1.02;;;4.50;1.00;;;;;;7362477;19;20498;-77
2023/01/16 09:22:43;;;;;;;5.40;1.58;;;4.60;1.00;;;;;;7363614;19;20532;-76
2023/01/16 09:25:16;;;;;;;3.30;1.00;;;4.60;1.00;;;;;;7362881;19;20011;-76
2023/01/16 09:27:47;;;;;;;3.97;1.20;;;4.60;1.00;;;;;;7363116;19;20018;-77
2023/01/16 09:30:18;;;;;;;2.10;1.30;;;4.60;1.00;;;;;;7381408;19;20559;-76
2023/01/16 09:32:48;;;;;;;1.95;1.00;;;4.60;1.00;;;;;;7365210;19;20021;-76
2023/01/16 09:35:18;;;;;;;1.98;0.80;;;4.60;1.00;;;;;;7361591;19;20067;-76
2023/01/16 09:37:48;;;;;;;3.15;1.30;;;4.60;1.00;;;;;;7363455;19;20478;-76
2023/01/16 09:40:24;;;;;;;2.65;1.02;;;4.70;1.00;;;;;;7360588;19;20061;-76
2023/01/16 09:45:55;;;;;;;2.17;0.70;;;4.90;1.00;;;;;;7359168;19;20266;-76
2023/01/16 09:48:30;;;;;;;3.35;0.70;;;4.90;1.00;;;;;;7383418;19;20091;-76
2023/01/16 09:51:06;;;;;;;1.52;0.60;;;5.00;1.00;;;;;;7362481;19;20078;-76
2023/01/16 09:59:27;;;;;;;2.08;0.90;;;5.00;1.00;;;;;;7359677;19;20086;-77
2023/01/16 10:02:05;;;;;;;4.40;1.10;;;5.10;1.00;;;;;;7362275;19;20011;-76
2023/01/16 10:04:36;;;;;;;4.68;0.95;;;5.10;1.00;;;;;;7362308;19;20029;-76
2023/01/16 10:07:24;;;;;;;2.03;1.00;;;5.10;1.00;;;;;;7362152;19;20037;-76
2023/01/16 10:10:02;;;;;;;3.13;1.13;;;5.10;1.00;;;;;;7360853;19;20027;-76
2023/01/16 10:12:39;;;;;;;2.20;1.00;;;5.10;1.00;;;;;;7386301;19;20029;-76
2023/01/16 10:15:20;;;;;;;1.25;0.68;;;5.10;1.00;;;;;;7361199;19;20014;-76
2023/01/16 10:18:01;;;;;;;2.75;0.75;;;5.20;1.00;;;;;;7361556;19;20014;-76
2023/01/16 10:20:48;;;;;;;3.03;0.95;;;5.20;1.00;;;;;;7360803;19;20010;-77
2023/01/16 10:23:35;;;;;;;2.30;0.88;;;5.20;1.00;;;;;;7361604;19;20811;-77
2023/01/16 10:26:10;;;;;;;4.95;0.95;;;5.20;1.00;;;;;;7362342;19;20017;-77
2023/01/16 10:29:00;;;;;;;2.40;0.90;;;5.20;1.00;;;;;;7361122;19;20011;-76
2023/01/16 10:31:36;;;;;;;2.00;0.70;;;5.20;1.00;;;;;;7361942;19;20014;-77
2023/01/16 10:34:12;;;;;;;2.30;0.65;;;5.30;1.00;;;;;;7361564;19;20078;-75
2023/01/16 10:36:45;;;;;;;2.30;0.70;;;5.40;1.00;;;;;;7361581;19;20020;-76
2023/01/16 10:39:17;;;;;;;2.03;0.82;;;5.40;1.00;;;;;;7381087;19;20022;-76
2023/01/16 10:50:07;;;;;;;2.13;1.05;;;5.50;1.00;;;;;;7359908;19;20101;-77
2023/01/16 10:52:38;;;;;;;2.60;0.98;;;5.60;1.00;;;;;;7360560;19;20017;-76
2023/01/16 10:55:10;;;;;;;2.22;0.60;;;5.70;1.00;;;;;;7360675;19;20014;-75
2023/01/16 10:57:48;;;;;;;1.23;0.70;;;5.80;1.00;;;;;;7365259;19;20138;-78
2023/01/16 11:00:28;;;;;;;1.95;0.52;;;5.90;1.00;;;;;;7387245;19;20015;-76
2023/01/16 11:03:01;;;;;;;1.55;0.80;;;5.90;1.00;;;;;;7366998;19;20010;-75
2023/01/16 11:05:34;;;;;;;2.85;0.60;;;6.00;1.00;;;;;;7366120;19;20040;-76
2023/01/16 11:08:09;;;;;;;3.60;0.43;;;6.00;1.00;;;;;;7370271;19;20015;-75
2023/01/16 11:10:41;;;;;;;1.20;0.43;;;6.00;1.00;;;;;;7365428;19;20007;-77
2023/01/16 11:19:18;;;;;;;1.25;0.65;;;6.10;1.00;;;;;;7366762;19;20018;-76
2023/01/16 11:21:53;;;;;;;3.97;0.98;;;6.10;1.00;;;;;;7367319;19;20010;-76
2023/01/16 11:24:24;;;;;;;4.07;1.10;;;6.10;1.00;;;;;;7389801;19;20014;-76
2023/01/16 11:26:56;;;;;;;3.58;0.60;;;6.10;1.00;;;;;;7363396;19;20017;-76
2023/01/16 11:29:30;;;;;;;1.00;0.63;;;6.10;1.00;;;;;;7364597;19;20014;-76
2023/01/16 11:32:07;;;;;;;1.30;0.52;;;6.10;1.00;;;;;;7367874;19;20031;-76
2023/01/16 11:34:40;;;;;;;1.92;0.70;;;6.10;1.00;;;;;;7367047;19;20021;-75
2023/01/16 11:37:13;;;;;;;1.90;1.00;;;6.10;1.00;;;;;;7367213;19;20022;-76
2023/01/16 11:39:43;;;;;;;1.42;0.70;;;6.10;1.00;;;;;;7365381;19;20035;-76
2023/01/16 11:47:46;;;;;;;2.22;0.70;;;6.10;1.00;;;;;;7365273;19;20014;-75
2023/01/16 11:50:30;;;;;;;1.15;0.52;;;6.10;1.00;;;;;;7365004;19;20026;-76
2023/01/16 11:53:00;;;;;;;2.75;1.00;;;6.10;1.00;;;;;;7366219;19;20573;-75
2023/01/16 11:55:38;;;;;;;1.17;0.63;;;6.10;1.00;;;;;;7365724;19;20018;-75
2023/01/16 11:58:15;;;;;;;0.93;0.50;;;6.20;1.00;;;;;;7366013;19;20035;-75
2023/01/16 12:00:57;;;;;;;1.05;0.70;;;6.20;1.00;;;;;;7366377;19;20015;-75
2023/01/16 12:04:02;;;;;;;1.23;0.50;;;6.30;1.00;;;;;;7388639;19;20031;-76
2023/01/16 12:06:49;;;;;;;1.63;0.57;;;6.30;1.00;;;;;;7261757;19;2004336;-77
2023/01/16 12:09:36;;;;;;;1.52;0.80;;;6.40;1.00;;;;;;7377470;19;20019;-77
2023/01/16 12:15:04;;;;;;;1.52;0.65;;;6.40;1.00;;;;;;7366537;19;20054;-75
2023/01/16 12:17:46;;;;;;;2.88;0.65;;;6.40;1.00;;;;;;7363825;19;20007;-75
2023/01/16 12:20:33;;;;;;;1.50;0.90;;;6.40;1.00;;;;;;7364136;19;20489;-75
2023/01/16 12:23:32;;;;;;;0.80;0.50;;;6.50;1.00;;;;;;7365409;19;20204;-75
2023/01/16 12:26:14;;;;;;;0.90;0.50;;;6.50;1.00;;;;;;7366027;19;20054;-75
2023/01/16 12:28:55;;;;;;;1.38;0.60;;;6.50;1.00;;;;;;7364224;19;20014;-75
2023/01/16 12:31:38;;;;;;;2.92;0.50;;;6.60;1.00;;;;;;7363864;19;20493;-73
2023/01/16 12:34:32;;;;;;;2.35;0.70;;;6.50;1.00;;;;;;7364916;19;20025;-75
2023/01/16 12:37:20;;;;;;;1.67;0.50;;;6.60;1.00;;;;;;7365966;19;20010;-75
2023/01/16 12:39:56;;;;;;;0.98;0.50;;;6.60;1.00;;;;;;7363809;19;20729;-75
2023/01/16 12:45:30;;;;;;;2.40;0.60;;;6.60;1.00;;;;;;7366658;19;20013;-75
2023/01/16 12:48:18;;;;;;;1.23;0.60;;;6.70;1.00;;;;;;7366591;19;20351;-75
2023/01/16 12:51:06;;;;;;;2.70;0.65;;;6.80;1.00;;;;;;7364063;19;20018;-75
2023/01/16 12:54:10;;;;;;;1.60;0.75;;;6.90;1.00;;;;;;7363591;19;20550;-77
2023/01/16 12:56:52;;;;;;;1.45;0.43;;;6.90;1.00;;;;;;7363847;19;20014;-77
2023/01/16 12:59:27;;;;;;;2.13;0.70;;;7.10;1.00;;;;;;7361721;19;20130;-76
2023/01/16 13:02:05;;;;;;;0.90;0.60;;;7.10;1.00;;;;;;7364007;19;20502;-75
2023/01/16 13:04:40;;;;;;;1.27;0.68;;;7.20;1.00;;;;;;7360017;19;20023;-77
2023/01/16 13:07:15;;;;;;;1.88;0.63;;;7.10;1.00;;;;;;7359756;19;20019;-76
2023/01/16 13:13:20;;;;;;;1.20;0.60;;;7.10;1.00;;;;;;7359159;19;20036;-76
2023/01/16 13:15:28;;;;;;;2.47;1.00;;;7.20;1.00;;;;;;7383555;19;20397;-74
2023/01/16 13:18:04;;;;;;;1.67;0.45;;;7.20;1.00;;;;;;7362842;19;20485;-77
2023/01/16 13:20:34;;;;;;;1.08;0.50;;;7.20;1.00;;;;;;7360564;19;20007;-75
2023/01/16 13:23:09;;;;;;;2.20;0.40;;;7.30;1.00;;;;;;7363467;19;20014;-77
2023/01/16 13:25:45;;;;;;;0.88;0.50;;;7.40;1.00;;;;;;7361140;19;20007;-76
2023/01/16 13:28:25;;;;;;;0.85;0.40;;;7.40;1.00;;;;;;7351092;19;20053;-77
2023/01/16 13:30:57;;;;;;;1.63;0.65;;;7.50;1.00;;;;;;7365293;19;20477;-77
2023/01/16 13:33:32;;;;;;;1.02;0.50;;;7.50;1.00;;;;;;7380593;19;20018;-76
2023/01/16 13:36:11;;;;;;;0.35;0.30;;;7.60;1.00;;;;;;7359068;19;20042;-77
2023/01/16 13:39:03;;;;;;;1.08;0.30;;;7.80;1.00;;;;;;7359031;19;20011;-77
2023/01/16 13:41:39;;;;;;;1.33;0.40;;;7.80;1.00;;;;;;7360460;19;20018;-78
2023/01/16 13:47:06;;;;;;;0.70;0.43;;;8.10;1.00;;;;;;7354814;19;20018;-78
2023/01/16 13:49:37;;;;;;;0.43;0.30;;;8.40;1.00;;;;;;7359323;19;20130;-78
2023/01/16 13:52:14;;;;;;;0.60;0.30;;;8.40;1.00;;;;;;7358242;19;20020;-75
2023/01/16 13:54:46;;;;;;;1.95;0.40;;;8.40;1.00;;;;;;7357083;19;20018;-77
2023/01/16 13:57:21;;;;;;;1.10;0.40;;;8.20;1.00;;;;;;7385290;19;20010;-77
2023/01/16 13:59:53;;;;;;;1.10;0.40;;;8.20;1.00;;;;;;7355356;19;20015;-77
2023/01/16 14:02:40;;;;;;;0.45;0.35;;;8.30;1.00;;;;;;7354631;19;20010;-76
2023/01/16 14:05:27;;;;;;;0.47;0.28;;;8.40;1.00;;;;;;7359703;19;20035;-76
2023/01/16 14:11:24;;;;;;;0.35;0.28;;;8.50;1.00;;;;;;7360549;19;20056;-77
2023/01/16 14:16:30;;;;;;;0.77;0.38;;;8.50;1.00;;;;;;7358734;19;20022;-76
2023/01/16 14:17:11;;;;;;;0.68;0.43;;;8.40;1.00;;;;;;7362310;19;20015;-75
2023/01/16 14:19:52;;;;;;;2.67;0.40;;;8.40;1.00;;;;;;7358408;19;20018;-75
2023/01/16 14:25:09;;;;;;;0.40;0.20;;;8.10;1.00;;;;;;7362782;19;20018;-75
2023/01/16 14:27:43;;;;;;;0.65;0.20;;;7.80;1.00;;;;;;7358975;19;20089;-75
2023/01/16 14:30:21;;;;;;;0.88;0.38;;;7.70;1.00;;;;;;7377575;19;20011;-75
2023/01/16 14:32:56;;;;;;;1.65;0.30;;;7.70;1.00;;;;;;7357053;19;20015;-75
2023/01/16 14:35:28;;;;;;;0.52;0.20;;;7.50;1.00;;;;;;7358829;19;20019;-75
2023/01/16 14:38:02;;;;;;;0.70;0.30;;;7.50;1.00;;;;;;7358695;19;20013;-75
2023/01/16 14:55:21;;;;;;;1.80;0.30;;;7.00;1.00;;;;;;7354413;19;20011;-72
2023/01/16 14:57:52;;;;;;;0.70;0.30;;;6.90;1.00;;;;;;7358747;19;20010;-73
2023/01/16 15:00:37;;;;;;;0.63;0.30;;;6.90;1.00;;;;;;7355710;19;20019;-72
2023/01/16 15:03:14;;;;;;;4.53;1.98;;;6.70;1.00;;;;;;7379467;19;20102;-73
2023/01/16 15:05:54;;;;;;;3.28;0.60;;;6.80;1.00;;;;;;7357868;19;20007;-72
2023/01/16 15:08:29;;;;;;;1.30;0.30;;;6.70;1.00;;;;;;7356606;19;20011;-79
2023/01/16 15:11:30;;;;;;;2.65;0.40;;;6.70;1.00;;;;;;7357489;19;20745;-75
2023/01/16 15:22:19;;;;;;;1.10;0.32;;;6.70;1.00;;;;;;7358172;19;20031;-76